Weather at Cross City Airport

Public forecast

Using degrees Fahrenheit for public forecast. Weather courtesy of forecast.io.

Current aviation weather report (METAR) for Cross City Airport

Retrieved 2020/11/26 03:35 UTC (0 seconds ago):

KCTY 260335Z AUTO 00000KT 10SM BKN085 17/16 A3017 RMK AO2 T01660159

Closest aviation forecast (TAF) to Cross City Airport

Closest forecast is Gainesville Regional Airport, 43.6 nm (80.7 km) E. Retrieved 2020-11-26 00:22 UTC (3 hours ago):

TAF KGNV 252320Z 2600/2624 VRB03KT P6SM FEW200 FM261000 00000KT 4SM BR FEW040 SCT180 FM261300 19004KT P6SM FEW035 FEW180